Time;durP1;ratioP1;P1;durP2;ratioP2;P2;SDS_P1;SDS_P2;PMS_P1;PMS_P2;Temp;Humidity;BMP_temperature;BMP_pressure;BME280_temperature;BME280_humidity;BME280_pressure;Samples;Min_cycle;Max_cycle;Signal;HPM_P1;HPM_P2
2024/02/14 00:01:43;;;;;;;5.13;3.40;;;4.60;99.90;;;;;;4112307;28;20427;-65
2024/02/14 00:03:44;;;;;;;6.80;3.80;;;4.60;99.90;;;;;;4107229;28;20118;-65
2024/02/14 00:05:45;;;;;;;5.50;3.50;;;4.50;99.90;;;;;;4096211;29;20031;-64
2024/02/14 00:07:47;;;;;;;6.17;3.50;;;4.60;99.90;;;;;;4102935;28;20152;-64
2024/02/14 00:09:48;;;;;;;8.33;3.17;;;4.60;99.90;;;;;;4111815;28;20376;-64
2024/02/14 00:11:49;;;;;;;5.47;3.00;;;4.60;99.90;;;;;;4113085;28;20587;-64
2024/02/14 00:13:50;;;;;;;5.53;3.07;;;4.60;99.90;;;;;;4103784;28;20043;-65
2024/02/14 00:15:52;;;;;;;5.40;3.23;;;4.60;99.90;;;;;;4097064;28;20039;-64
2024/02/14 00:17:53;;;;;;;5.50;3.63;;;4.60;99.90;;;;;;4095893;28;20065;-64
2024/02/14 00:19:55;;;;;;;4.23;2.53;;;4.60;99.90;;;;;;4108099;28;20082;-63
2024/02/14 00:21:56;;;;;;;3.90;2.87;;;4.60;99.90;;;;;;4103331;28;20091;-62
2024/02/14 00:23:58;;;;;;;4.17;2.83;;;4.60;99.90;;;;;;4096713;28;20735;-64
2024/02/14 00:25:59;;;;;;;5.17;3.10;;;4.60;99.90;;;;;;4103187;28;20098;-66
2024/02/14 00:28:00;;;;;;;4.20;2.90;;;4.60;99.90;;;;;;4112770;28;20047;-64
2024/02/14 00:30:03;;;;;;;4.43;3.00;;;4.60;99.90;;;;;;4126716;28;20046;-63
2024/02/14 00:32:04;;;;;;;6.47;3.00;;;4.60;99.90;;;;;;4104853;28;20073;-63
2024/02/14 00:34:06;;;;;;;3.90;2.73;;;4.60;99.90;;;;;;4112552;28;20136;-64
2024/02/14 00:36:07;;;;;;;3.83;2.40;;;4.60;99.90;;;;;;4108470;28;20772;-66
2024/02/14 00:38:08;;;;;;;5.97;2.87;;;4.60;99.90;;;;;;4096864;29;20460;-64
2024/02/14 00:40:11;;;;;;;4.10;2.93;;;4.60;99.90;;;;;;4094578;28;20071;-64
2024/02/14 00:42:12;;;;;;;2.93;2.40;;;4.70;99.90;;;;;;4109230;28;20109;-63
2024/02/14 00:44:18;;;;;;;2.80;2.33;;;4.60;99.90;;;;;;4107232;28;20043;-63
2024/02/14 00:46:20;;;;;;;3.53;2.60;;;4.60;99.90;;;;;;4096950;28;20110;-64
2024/02/14 00:48:21;;;;;;;4.43;2.70;;;4.70;99.90;;;;;;4098389;28;20311;-63
2024/02/14 00:50:22;;;;;;;3.70;2.57;;;4.70;99.90;;;;;;4111218;28;20086;-66
2024/02/14 00:52:24;;;;;;;5.60;2.67;;;4.70;99.90;;;;;;4111412;28;20034;-65
2024/02/14 00:54:25;;;;;;;2.97;2.53;;;4.70;99.90;;;;;;4109151;28;20077;-66
2024/02/14 00:56:26;;;;;;;4.07;2.80;;;4.60;99.90;;;;;;4095586;28;20421;-63
2024/02/14 00:58:27;;;;;;;4.50;2.40;;;4.70;99.90;;;;;;4096536;28;20110;-66
2024/02/14 01:00:29;;;;;;;8.43;4.17;;;4.70;99.90;;;;;;4095740;29;20261;-65
2024/02/14 01:02:30;;;;;;;2.77;2.10;;;4.70;99.90;;;;;;4110474;28;20483;-65
2024/02/14 01:04:31;;;;;;;4.57;2.60;;;4.60;99.90;;;;;;4096169;29;20039;-66
2024/02/14 01:06:32;;;;;;;3.80;2.43;;;4.60;99.90;;;;;;4096041;28;20417;-62
2024/02/14 01:08:34;;;;;;;4.27;2.70;;;4.60;99.90;;;;;;4103595;28;20078;-65
2024/02/14 01:10:35;;;;;;;5.10;2.67;;;4.60;99.90;;;;;;4114370;28;20090;-67
2024/02/14 01:12:36;;;;;;;4.90;3.10;;;4.60;99.90;;;;;;4115579;28;20038;-66
2024/02/14 01:14:37;;;;;;;3.40;2.30;;;4.60;99.90;;;;;;4100940;28;20043;-64
2024/02/14 01:16:45;;;;;;;3.70;2.10;;;4.60;99.90;;;;;;4099245;28;20504;-62
2024/02/14 01:18:46;;;;;;;4.10;2.60;;;4.60;99.90;;;;;;4097038;29;20277;-65
2024/02/14 01:20:48;;;;;;;4.00;2.43;;;4.60;99.90;;;;;;4100393;28;20079;-66
2024/02/14 01:22:49;;;;;;;3.40;2.37;;;4.60;99.90;;;;;;4107703;28;20043;-64
2024/02/14 01:24:50;;;;;;;3.07;2.10;;;4.60;99.90;;;;;;4102494;28;20039;-63
2024/02/14 01:26:51;;;;;;;5.63;2.83;;;4.60;99.90;;;;;;4098639;29;20027;-66
2024/02/14 01:28:53;;;;;;;4.33;2.50;;;4.60;99.90;;;;;;4099364;28;20039;-66
2024/02/14 01:30:54;;;;;;;3.17;2.17;;;4.60;99.90;;;;;;4098420;28;20916;-61
2024/02/14 01:32:55;;;;;;;3.23;2.53;;;4.60;99.90;;;;;;4111220;28;20034;-64
2024/02/14 01:34:56;;;;;;;4.47;2.80;;;4.60;99.90;;;;;;4114184;28;20101;-62
2024/02/14 01:36:57;;;;;;;4.57;2.80;;;4.60;99.90;;;;;;4112552;28;20308;-65
2024/02/14 01:38:59;;;;;;;5.03;2.90;;;4.60;99.90;;;;;;4114406;28;20039;-59
2024/02/14 01:41:00;;;;;;;4.70;2.20;;;4.60;99.90;;;;;;4114113;28;20085;-61
2024/02/14 01:43:01;;;;;;;3.90;2.50;;;4.60;99.90;;;;;;4114761;28;20051;-66
2024/02/14 01:45:03;;;;;;;5.03;2.80;;;4.60;99.90;;;;;;4098077;28;20273;-62
2024/02/14 01:47:06;;;;;;;4.30;2.50;;;4.60;99.90;;;;;;4098551;28;20277;-61
2024/02/14 01:49:08;;;;;;;5.63;2.37;;;4.60;99.90;;;;;;4101080;28;20089;-63
2024/02/14 01:51:12;;;;;;;4.70;2.57;;;4.60;99.90;;;;;;4107016;28;20047;-60
2024/02/14 01:53:14;;;;;;;5.33;2.33;;;4.60;99.90;;;;;;4099020;28;20039;-64
2024/02/14 01:55:16;;;;;;;3.10;2.00;;;4.60;99.90;;;;;;4101675;28;20039;-62
2024/02/14 01:57:17;;;;;;;5.53;2.57;;;4.60;99.90;;;;;;4111387;28;20515;-63
2024/02/14 01:59:19;;;;;;;4.80;2.53;;;4.60;99.90;;;;;;4114508;28;20331;-65
2024/02/14 02:01:21;;;;;;;6.33;2.60;;;4.60;99.90;;;;;;4105939;28;20078;-61
2024/02/14 02:03:26;;;;;;;4.77;2.60;;;4.60;99.90;;;;;;4098480;29;20698;-62
2024/02/14 02:05:28;;;;;;;4.33;2.50;;;4.60;99.90;;;;;;4111495;28;20253;-66
2024/02/14 02:07:31;;;;;;;4.43;2.50;;;4.50;99.90;;;;;;4110704;28;20043;-62
2024/02/14 02:09:33;;;;;;;3.50;2.03;;;4.60;99.90;;;;;;4105075;28;20034;-63
2024/02/14 02:11:53;;;;;;;5.00;2.57;;;4.50;99.90;;;;;;4113849;28;20090;-63
2024/02/14 02:13:55;;;;;;;2.97;2.17;;;4.60;99.90;;;;;;4108275;28;20273;-63
2024/02/14 02:15:56;;;;;;;3.13;2.30;;;4.60;99.90;;;;;;4097958;28;20269;-63
2024/02/14 02:17:59;;;;;;;5.13;2.40;;;4.60;99.90;;;;;;4098501;28;20052;-62
2024/02/14 02:20:01;;;;;;;2.83;2.07;;;4.50;99.90;;;;;;4096619;28;20043;-63
2024/02/14 02:22:04;;;;;;;5.70;2.53;;;4.60;99.90;;;;;;4098103;28;20086;-60
2024/02/14 02:24:06;;;;;;;2.60;2.00;;;4.50;99.90;;;;;;4111859;28;20171;-62
2024/02/14 02:26:08;;;;;;;5.07;2.13;;;4.50;99.90;;;;;;4098659;28;20047;-62
2024/02/14 02:28:09;;;;;;;4.27;2.47;;;4.50;99.90;;;;;;4096218;28;20055;-66
2024/02/14 02:30:13;;;;;;;5.30;2.53;;;4.50;99.90;;;;;;4098159;29;20039;-64
2024/02/14 02:32:16;;;;;;;3.73;2.30;;;4.50;99.90;;;;;;4097215;28;20090;-62
2024/02/14 02:34:17;;;;;;;3.70;2.10;;;4.50;99.90;;;;;;4098346;29;20034;-64
2024/02/14 02:36:19;;;;;;;4.03;2.60;;;4.50;99.90;;;;;;4097254;28;20042;-62
2024/02/14 02:38:21;;;;;;;3.23;2.30;;;4.50;99.90;;;;;;4108846;28;20086;-62
2024/02/14 02:40:24;;;;;;;4.20;1.97;;;4.50;99.90;;;;;;4113101;28;20082;-62
2024/02/14 02:42:25;;;;;;;3.37;1.83;;;4.50;99.90;;;;;;4114024;28;20039;-63
2024/02/14 02:44:27;;;;;;;4.20;2.30;;;4.50;99.90;;;;;;4104344;28;20090;-65
2024/02/14 02:46:29;;;;;;;3.23;2.40;;;4.50;99.90;;;;;;4107314;28;20285;-62
2024/02/14 02:48:31;;;;;;;3.03;2.40;;;4.50;99.90;;;;;;4097534;28;20471;-62
2024/02/14 02:50:33;;;;;;;3.37;2.47;;;4.50;99.90;;;;;;4108498;28;20495;-65
2024/02/14 02:52:35;;;;;;;2.60;2.13;;;4.50;99.90;;;;;;4107779;28;20047;-63
2024/02/14 02:54:39;;;;;;;3.73;2.30;;;4.50;99.90;;;;;;4104065;28;20035;-61
2024/02/14 02:56:43;;;;;;;3.77;2.57;;;4.50;99.90;;;;;;4098001;28;20032;-63
2024/02/14 02:58:44;;;;;;;4.40;2.47;;;4.50;99.90;;;;;;4109059;28;20475;-61
2024/02/14 03:00:46;;;;;;;5.93;2.57;;;4.50;99.90;;;;;;4111793;28;20035;-66
2024/02/14 03:02:48;;;;;;;2.87;2.07;;;4.40;99.90;;;;;;4112667;28;20349;-65
2024/02/14 03:04:50;;;;;;;4.00;2.73;;;4.50;99.90;;;;;;4113805;28;20031;-65
2024/02/14 03:06:51;;;;;;;5.27;2.87;;;4.40;99.90;;;;;;4112587;28;20510;-68
2024/02/14 03:08:55;;;;;;;4.83;2.83;;;4.40;99.90;;;;;;4113705;28;20093;-63
2024/02/14 03:10:59;;;;;;;5.37;2.77;;;4.40;99.90;;;;;;4112617;28;20043;-66
2024/02/14 03:13:00;;;;;;;3.17;2.20;;;4.40;99.90;;;;;;4112000;28;20046;-66
2024/02/14 03:15:04;;;;;;;4.47;2.47;;;4.40;99.90;;;;;;4098697;28;20043;-63
2024/02/14 03:17:08;;;;;;;5.97;2.37;;;4.40;99.90;;;;;;4127215;28;20153;-62
2024/02/14 03:19:09;;;;;;;5.07;2.70;;;4.40;99.90;;;;;;4112332;28;20031;-62
2024/02/14 03:21:11;;;;;;;4.30;2.60;;;4.40;99.90;;;;;;4112882;28;20265;-61
2024/02/14 03:23:15;;;;;;;7.07;2.90;;;4.40;99.90;;;;;;4105608;28;20055;-61
2024/02/14 03:25:20;;;;;;;3.70;2.70;;;4.40;99.90;;;;;;4097975;28;20269;-65
2024/02/14 03:27:23;;;;;;;4.27;3.10;;;4.40;99.90;;;;;;4112794;28;20090;-61
2024/02/14 03:29:24;;;;;;;4.90;2.43;;;4.40;99.90;;;;;;4111913;28;20281;-62
2024/02/14 03:31:26;;;;;;;5.83;2.70;;;4.40;99.90;;;;;;4111262;28;20273;-61
2024/02/14 03:33:28;;;;;;;3.87;2.50;;;4.40;99.90;;;;;;4111915;28;20714;-59
2024/02/14 03:35:30;;;;;;;4.80;2.90;;;4.30;99.90;;;;;;4113005;28;20027;-61
2024/02/14 03:37:32;;;;;;;3.70;2.90;;;4.40;99.90;;;;;;4112293;28;20047;-60
2024/02/14 03:39:33;;;;;;;3.87;2.67;;;4.30;99.90;;;;;;4111780;28;20769;-62
2024/02/14 03:41:34;;;;;;;5.33;2.87;;;4.40;99.90;;;;;;4112161;28;20264;-63
2024/02/14 03:43:36;;;;;;;5.63;2.70;;;4.30;99.90;;;;;;4111255;28;20449;-62
2024/02/14 03:45:37;;;;;;;6.90;3.30;;;4.30;99.90;;;;;;4111995;28;20026;-62
2024/02/14 03:47:39;;;;;;;6.47;3.53;;;4.40;99.90;;;;;;4106674;28;20336;-59
2024/02/14 03:49:40;;;;;;;4.70;2.50;;;4.40;99.90;;;;;;4096315;28;20090;-60
2024/02/14 03:51:41;;;;;;;4.83;3.03;;;4.30;99.90;;;;;;4098409;28;20476;-66
2024/02/14 03:53:43;;;;;;;4.77;3.37;;;4.40;99.90;;;;;;4097524;28;20083;-61
2024/02/14 03:55:44;;;;;;;6.53;3.00;;;4.40;99.90;;;;;;4097021;28;20086;-60
2024/02/14 03:57:46;;;;;;;4.40;3.10;;;4.40;99.90;;;;;;4097064;28;20114;-60
2024/02/14 03:59:48;;;;;;;3.93;3.13;;;4.30;99.90;;;;;;4096719;29;20075;-61
2024/02/14 04:01:50;;;;;;;5.60;3.23;;;4.30;99.90;;;;;;4098166;28;20048;-62
2024/02/14 04:03:51;;;;;;;5.23;3.10;;;4.40;99.90;;;;;;4096410;29;20153;-62
2024/02/14 04:05:53;;;;;;;5.30;3.90;;;4.30;99.90;;;;;;4097289;28;20048;-65
2024/02/14 04:07:55;;;;;;;5.87;3.37;;;4.30;99.90;;;;;;4096093;29;20028;-62
2024/02/14 04:09:57;;;;;;;4.87;3.17;;;4.30;99.90;;;;;;4097201;29;20082;-61
2024/02/14 04:11:58;;;;;;;5.07;3.57;;;4.30;99.90;;;;;;4110290;28;20457;-62
2024/02/14 04:13:59;;;;;;;4.07;2.90;;;4.40;99.90;;;;;;4108294;28;20031;-60
2024/02/14 04:16:01;;;;;;;6.23;3.63;;;4.30;99.90;;;;;;4096599;28;20047;-61
2024/02/14 04:18:03;;;;;;;5.47;3.63;;;4.30;99.90;;;;;;4098373;28;20082;-62
2024/02/14 04:20:05;;;;;;;6.77;3.43;;;4.30;99.90;;;;;;4105138;28;20503;-61
2024/02/14 04:22:07;;;;;;;6.67;3.67;;;4.30;99.90;;;;;;4100362;28;20547;-61
2024/02/14 04:24:09;;;;;;;6.43;4.30;;;4.30;99.90;;;;;;4110112;28;20491;-60
2024/02/14 04:26:10;;;;;;;7.23;4.00;;;4.30;99.90;;;;;;4112993;28;20081;-61
2024/02/14 04:28:12;;;;;;;5.40;3.90;;;4.30;99.90;;;;;;4111862;28;20085;-62
2024/02/14 04:30:13;;;;;;;6.43;4.10;;;4.30;99.90;;;;;;4112270;28;20277;-63
2024/02/14 04:32:15;;;;;;;6.83;4.30;;;4.30;99.90;;;;;;4112556;28;20378;-61
2024/02/14 04:34:16;;;;;;;9.13;4.23;;;4.20;99.90;;;;;;4112274;28;20309;-63
2024/02/14 04:36:19;;;;;;;6.07;4.03;;;4.30;99.90;;;;;;4112449;28;20043;-61
2024/02/14 04:38:21;;;;;;;10.70;4.43;;;4.30;99.90;;;;;;4097266;28;20348;-62
2024/02/14 04:40:23;;;;;;;6.20;3.97;;;4.30;99.90;;;;;;4097857;28;20099;-59
2024/02/14 04:42:24;;;;;;;5.57;3.90;;;4.30;99.90;;;;;;4095785;28;20444;-63
2024/02/14 04:44:25;;;;;;;5.80;3.70;;;4.30;99.90;;;;;;4099856;29;20507;-62
2024/02/14 04:46:26;;;;;;;6.73;3.93;;;4.20;99.90;;;;;;4109220;28;20105;-62
2024/02/14 04:48:27;;;;;;;5.57;3.80;;;4.30;99.90;;;;;;4115798;28;20098;-58
2024/02/14 04:50:30;;;;;;;6.67;4.33;;;4.30;99.90;;;;;;4114744;28;20268;-61
2024/02/14 04:52:32;;;;;;;9.07;5.00;;;4.20;99.90;;;;;;4106303;28;20031;-61
2024/02/14 04:54:33;;;;;;;6.77;4.17;;;4.20;99.90;;;;;;4109192;28;20288;-62
2024/02/14 04:56:34;;;;;;;7.87;4.33;;;4.20;99.90;;;;;;4115829;28;20471;-62
2024/02/14 04:58:36;;;;;;;4.73;3.93;;;4.20;99.90;;;;;;4113458;28;20043;-60
2024/02/14 05:00:38;;;;;;;8.93;4.10;;;4.20;99.90;;;;;;4105337;28;20031;-62
2024/02/14 05:02:41;;;;;;;8.57;5.07;;;4.20;99.90;;;;;;4099557;28;20048;-60
2024/02/14 05:04:42;;;;;;;6.27;3.97;;;4.20;99.90;;;;;;4099119;29;20028;-63
2024/02/14 05:06:43;;;;;;;7.77;4.33;;;4.20;99.90;;;;;;4102062;28;20262;-62
2024/02/14 05:08:44;;;;;;;6.43;4.03;;;4.20;99.90;;;;;;4098635;29;20277;-61
2024/02/14 05:10:46;;;;;;;9.97;4.70;;;4.20;99.90;;;;;;4098890;28;20418;-59
2024/02/14 05:12:47;;;;;;;6.23;4.30;;;4.20;99.90;;;;;;4103108;28;20339;-62
2024/02/14 05:14:48;;;;;;;8.07;4.37;;;4.20;99.90;;;;;;4101814;28;20436;-63
2024/02/14 05:16:49;;;;;;;9.87;5.30;;;4.20;99.90;;;;;;4111710;28;20093;-62
2024/02/14 05:18:51;;;;;;;9.20;5.50;;;4.20;99.90;;;;;;4114751;28;20385;-61
2024/02/14 05:20:52;;;;;;;7.63;4.57;;;4.20;99.90;;;;;;4105739;28;20281;-60
2024/02/14 05:22:54;;;;;;;6.50;4.13;;;4.20;99.90;;;;;;4102602;28;20852;-61
2024/02/14 05:24:55;;;;;;;7.67;4.57;;;4.20;99.90;;;;;;4099077;28;20039;-63
2024/02/14 05:26:56;;;;;;;5.37;3.40;;;4.20;99.90;;;;;;4113240;28;20351;-63
2024/02/14 05:28:58;;;;;;;7.60;3.83;;;4.10;99.90;;;;;;4114043;28;20051;-62
2024/02/14 05:31:00;;;;;;;8.00;4.50;;;4.20;99.90;;;;;;4107268;28;20388;-63
2024/02/14 05:33:02;;;;;;;7.17;4.23;;;4.20;99.90;;;;;;4098219;29;20683;-63
2024/02/14 05:35:05;;;;;;;9.03;4.90;;;4.20;99.90;;;;;;4098542;29;20546;-62
2024/02/14 05:37:07;;;;;;;9.03;4.83;;;4.20;99.90;;;;;;4098446;29;20321;-65
2024/02/14 05:39:09;;;;;;;6.97;4.83;;;4.20;99.90;;;;;;4099286;28;20442;-62
2024/02/14 05:41:11;;;;;;;7.27;5.13;;;4.20;99.90;;;;;;4099808;28;20035;-63
2024/02/14 05:43:12;;;;;;;9.53;4.93;;;4.20;99.90;;;;;;4097772;28;20098;-59
2024/02/14 05:45:14;;;;;;;8.23;4.33;;;4.10;99.90;;;;;;4100805;28;20543;-64
2024/02/14 05:47:15;;;;;;;5.97;4.00;;;4.20;99.90;;;;;;4099799;28;20270;-63
2024/02/14 05:49:16;;;;;;;8.97;4.57;;;4.20;99.90;;;;;;4099553;28;20320;-61
2024/02/14 05:51:18;;;;;;;10.03;5.33;;;4.10;99.90;;;;;;4097584;29;20031;-61
2024/02/14 05:53:20;;;;;;;8.37;4.67;;;4.20;99.90;;;;;;4099747;28;20043;-61
2024/02/14 05:55:21;;;;;;;7.97;4.87;;;4.10;99.90;;;;;;4097548;29;20031;-61
2024/02/14 05:57:22;;;;;;;6.97;4.23;;;4.20;99.90;;;;;;4098984;29;20270;-60
2024/02/14 05:59:24;;;;;;;8.20;4.23;;;4.20;99.90;;;;;;4097832;28;20292;-60
2024/02/14 06:01:25;;;;;;;8.73;4.60;;;4.20;99.90;;;;;;4101459;28;20812;-62
2024/02/14 06:03:27;;;;;;;13.27;6.03;;;4.20;99.90;;;;;;4097484;29;20035;-55
2024/02/14 06:05:28;;;;;;;12.00;5.77;;;4.20;99.90;;;;;;4098390;29;20328;-60
2024/02/14 06:07:29;;;;;;;8.40;5.10;;;4.20;99.90;;;;;;4097774;29;20305;-57
2024/02/14 06:09:31;;;;;;;10.37;4.50;;;4.20;99.90;;;;;;4096981;29;20273;-62
2024/02/14 06:11:32;;;;;;;6.77;4.57;;;4.20;99.90;;;;;;4097867;29;20164;-61
2024/02/14 06:13:35;;;;;;;8.33;4.00;;;4.20;99.90;;;;;;4097343;28;20043;-61
2024/02/14 06:15:36;;;;;;;6.77;4.50;;;4.30;99.90;;;;;;4098151;29;20274;-60
2024/02/14 06:17:38;;;;;;;7.97;4.23;;;4.30;99.90;;;;;;4097275;29;20784;-63
2024/02/14 06:19:39;;;;;;;8.73;4.50;;;4.40;99.90;;;;;;4098515;29;20078;-60
2024/02/14 06:21:41;;;;;;;7.17;4.10;;;4.40;99.90;;;;;;4096772;29;20273;-61
2024/02/14 06:23:42;;;;;;;7.83;4.10;;;4.40;99.90;;;;;;4098350;29;20090;-61
2024/02/14 06:25:43;;;;;;;5.93;3.80;;;4.40;99.90;;;;;;4096997;29;20082;-62
2024/02/14 06:27:45;;;;;;;6.27;3.83;;;4.40;99.90;;;;;;4098492;28;20122;-60
2024/02/14 06:29:46;;;;;;;6.13;3.73;;;4.40;99.90;;;;;;4096565;29;20094;-59
2024/02/14 06:31:47;;;;;;;8.67;4.27;;;4.40;99.90;;;;;;4097847;29;20277;-60
2024/02/14 06:33:48;;;;;;;7.90;4.03;;;4.40;99.90;;;;;;4096974;28;20043;-59
2024/02/14 06:35:50;;;;;;;6.50;3.80;;;4.40;99.90;;;;;;4097907;29;20401;-60
2024/02/14 06:37:51;;;;;;;5.23;3.80;;;4.50;99.90;;;;;;4097048;29;20472;-59
2024/02/14 06:39:52;;;;;;;6.37;3.80;;;4.40;99.90;;;;;;4096980;29;20277;-61
2024/02/14 06:41:53;;;;;;;5.30;3.60;;;4.50;99.90;;;;;;4097421;29;20093;-62
2024/02/14 06:43:54;;;;;;;5.97;3.77;;;4.50;99.90;;;;;;4096934;28;20063;-61
2024/02/14 06:45:56;;;;;;;8.77;4.67;;;4.50;99.90;;;;;;4097544;29;20377;-61
2024/02/14 06:47:58;;;;;;;6.40;3.63;;;4.50;99.90;;;;;;4096845;29;20078;-62
2024/02/14 06:49:59;;;;;;;6.53;3.73;;;4.50;99.90;;;;;;4097848;29;20094;-60
2024/02/14 06:52:00;;;;;;;7.37;3.80;;;4.50;99.90;;;;;;4096809;29;20043;-60
2024/02/14 06:54:02;;;;;;;7.67;3.83;;;4.60;99.90;;;;;;4098027;29;20067;-62
2024/02/14 06:56:04;;;;;;;8.00;4.30;;;4.60;99.90;;;;;;4096582;28;20105;-63
2024/02/14 06:58:05;;;;;;;6.20;3.70;;;4.60;99.90;;;;;;4097622;29;20118;-60
2024/02/14 07:00:08;;;;;;;8.30;3.50;;;4.60;99.90;;;;;;4096297;29;20024;-60
2024/02/14 07:02:09;;;;;;;8.20;3.67;;;4.60;99.90;;;;;;4097701;29;20090;-61
2024/02/14 07:04:11;;;;;;;6.50;4.23;;;4.60;99.90;;;;;;4096585;29;20043;-59
2024/02/14 07:06:12;;;;;;;7.00;4.23;;;4.60;99.90;;;;;;4096904;28;20066;-61
2024/02/14 07:08:14;;;;;;;6.00;4.00;;;4.70;99.90;;;;;;4096265;29;20094;-60
2024/02/14 07:10:16;;;;;;;7.30;4.90;;;4.70;99.90;;;;;;4097185;29;20059;-60
2024/02/14 07:12:17;;;;;;;9.17;4.90;;;4.70;99.90;;;;;;4096709;29;20031;-62
2024/02/14 07:14:18;;;;;;;9.50;4.20;;;4.70;99.90;;;;;;4096272;29;20035;-59
2024/02/14 07:16:19;;;;;;;6.83;4.03;;;4.70;99.90;;;;;;4096767;29;20094;-61
2024/02/14 07:18:20;;;;;;;6.57;4.30;;;4.70;99.90;;;;;;4096053;29;20032;-60
2024/02/14 07:20:22;;;;;;;9.47;5.43;;;4.70;99.90;;;;;;4097326;28;20078;-60
2024/02/14 07:22:23;;;;;;;10.77;5.40;;;4.70;99.90;;;;;;4096314;28;20039;-63
2024/02/14 07:24:24;;;;;;;9.73;4.97;;;4.70;99.90;;;;;;4097511;29;20043;-62
2024/02/14 07:26:26;;;;;;;7.23;3.90;;;4.70;99.90;;;;;;4096470;29;20023;-60
2024/02/14 07:28:27;;;;;;;19.33;5.70;;;4.80;99.90;;;;;;4097919;29;20027;-61
2024/02/14 07:30:28;;;;;;;7.17;4.27;;;4.80;99.90;;;;;;4096122;29;20130;-61
2024/02/14 07:32:29;;;;;;;9.70;4.90;;;4.80;99.90;;;;;;4097353;29;20039;-60
2024/02/14 07:34:31;;;;;;;8.10;4.60;;;4.80;99.90;;;;;;4096141;29;20043;-61
2024/02/14 07:36:32;;;;;;;5.57;3.90;;;4.80;99.90;;;;;;4096596;29;20035;-60
2024/02/14 07:38:33;;;;;;;6.27;3.50;;;4.90;99.90;;;;;;4110377;28;20031;-60
2024/02/14 07:40:34;;;;;;;7.50;4.03;;;4.90;99.90;;;;;;4096895;28;20020;-59
2024/02/14 07:42:36;;;;;;;9.27;4.77;;;4.90;99.90;;;;;;4096705;29;20056;-59
2024/02/14 07:44:37;;;;;;;10.33;4.00;;;4.90;99.90;;;;;;4096308;29;20043;-59
2024/02/14 07:46:38;;;;;;;6.27;3.97;;;5.00;99.90;;;;;;4096911;29;20097;-61
2024/02/14 07:48:40;;;;;;;5.90;4.23;;;5.10;99.90;;;;;;4096307;29;20027;-62
2024/02/14 07:50:41;;;;;;;6.20;3.90;;;5.00;99.90;;;;;;4097213;29;20472;-58
2024/02/14 07:52:43;;;;;;;5.33;3.23;;;5.10;99.90;;;;;;4095941;29;20028;-60
2024/02/14 07:54:45;;;;;;;9.27;4.07;;;5.10;99.90;;;;;;4096992;28;20063;-59
2024/02/14 07:56:46;;;;;;;8.50;3.80;;;5.10;99.90;;;;;;4095738;29;20038;-60
2024/02/14 07:58:47;;;;;;;10.00;3.57;;;5.10;99.90;;;;;;4097261;29;20559;-59
2024/02/14 08:00:49;;;;;;;5.73;3.63;;;5.20;99.90;;;;;;4095633;28;20413;-59
2024/02/14 08:02:50;;;;;;;5.83;3.73;;;5.20;99.90;;;;;;4097047;29;20102;-60
2024/02/14 08:04:51;;;;;;;8.53;3.97;;;5.20;99.90;;;;;;4095655;28;20110;-60
2024/02/14 08:06:53;;;;;;;7.17;3.40;;;5.30;99.90;;;;;;4096458;29;20070;-61
2024/02/14 08:08:58;;;;;;;7.87;3.50;;;5.30;99.90;;;;;;4110487;28;20030;-60
2024/02/14 08:11:00;;;;;;;6.43;4.50;;;5.30;99.90;;;;;;4096561;28;20259;-61
2024/02/14 08:13:01;;;;;;;6.67;3.93;;;5.40;99.90;;;;;;4095979;29;20078;-61
2024/02/14 08:15:05;;;;;;;6.20;4.10;;;5.40;99.90;;;;;;4095957;29;20027;-61
2024/02/14 08:17:07;;;;;;;9.17;4.00;;;5.40;99.90;;;;;;4097753;28;20455;-63
2024/02/14 08:19:08;;;;;;;11.60;4.30;;;5.40;99.90;;;;;;4099157;29;20090;-63
2024/02/14 08:21:10;;;;;;;7.40;3.93;;;5.40;99.90;;;;;;4099890;29;20086;-58
2024/02/14 08:23:12;;;;;;;9.10;3.23;;;5.50;99.90;;;;;;4099146;29;20082;-61
2024/02/14 08:25:13;;;;;;;5.13;3.60;;;5.50;99.90;;;;;;4100074;29;20042;-61
2024/02/14 08:27:14;;;;;;;11.23;3.70;;;5.50;99.90;;;;;;4099094;29;20480;-58
2024/02/14 08:29:15;;;;;;;9.33;3.67;;;5.50;99.90;;;;;;4100027;29;20051;-61
2024/02/14 08:31:17;;;;;;;4.93;3.23;;;5.50;99.90;;;;;;4098875;29;20062;-62
2024/02/14 08:33:18;;;;;;;7.43;3.47;;;5.50;99.90;;;;;;4100040;28;20047;-60
2024/02/14 08:35:21;;;;;;;6.87;2.97;;;5.50;99.90;;;;;;4098570;29;20484;-61
2024/02/14 08:37:24;;;;;;;6.93;3.33;;;5.50;99.90;;;;;;4100204;28;20040;-60
2024/02/14 08:39:26;;;;;;;11.57;3.47;;;5.50;99.90;;;;;;4098824;28;20094;-59
2024/02/14 08:41:27;;;;;;;7.90;3.20;;;5.50;99.90;;;;;;4099877;29;20479;-57
2024/02/14 08:43:29;;;;;;;6.33;3.43;;;5.50;99.90;;;;;;4098642;28;20043;-62
2024/02/14 08:45:31;;;;;;;4.07;2.90;;;5.60;99.90;;;;;;4099142;29;20090;-62
2024/02/14 08:47:32;;;;;;;5.73;3.50;;;5.60;99.90;;;;;;4098840;29;20764;-56
2024/02/14 08:49:33;;;;;;;5.60;3.20;;;5.60;99.90;;;;;;4098770;29;20079;-61
2024/02/14 08:51:36;;;;;;;4.83;3.00;;;5.50;99.90;;;;;;4098642;29;20126;-65
2024/02/14 08:53:37;;;;;;;4.73;2.60;;;5.50;99.90;;;;;;4096958;29;20074;-63
2024/02/14 08:55:39;;;;;;;5.33;2.70;;;5.50;99.90;;;;;;4099542;29;20126;-63
2024/02/14 08:57:41;;;;;;;7.47;3.60;;;5.60;99.90;;;;;;4098501;28;20134;-61
2024/02/14 08:59:44;;;;;;;4.97;3.00;;;5.60;99.90;;;;;;4099665;28;20078;-61
2024/02/14 09:01:45;;;;;;;4.43;2.50;;;5.60;99.90;;;;;;4098357;29;20023;-62
2024/02/14 09:03:49;;;;;;;4.40;2.27;;;5.50;99.90;;;;;;4099375;29;20031;-64
2024/02/14 09:05:52;;;;;;;7.03;2.77;;;5.50;99.90;;;;;;4098216;28;20043;-61
2024/02/14 09:07:54;;;;;;;6.80;3.13;;;5.50;99.90;;;;;;4099390;28;20108;-64
2024/02/14 09:09:55;;;;;;;8.30;2.80;;;5.60;99.90;;;;;;4098303;29;20039;-59
2024/02/14 09:11:56;;;;;;;6.03;2.77;;;5.60;99.90;;;;;;4098128;29;20090;-62
2024/02/14 09:14:04;;;;;;;4.70;2.30;;;5.70;99.90;;;;;;4098582;29;20498;-64
2024/02/14 09:16:05;;;;;;;5.30;2.30;;;5.70;99.90;;;;;;4099362;28;20047;-59
2024/02/14 09:18:07;;;;;;;6.77;2.50;;;5.80;99.90;;;;;;4098214;28;20148;-61
2024/02/14 09:20:09;;;;;;;6.53;3.20;;;5.80;99.90;;;;;;4098692;28;20043;-61
2024/02/14 09:22:10;;;;;;;13.80;2.83;;;5.80;99.90;;;;;;4098581;29;20023;-61
2024/02/14 09:24:12;;;;;;;5.30;2.43;;;5.80;99.90;;;;;;4098406;29;20074;-67
2024/02/14 09:26:16;;;;;;;3.73;2.23;;;5.80;99.90;;;;;;4098817;28;20672;-65
2024/02/14 09:28:17;;;;;;;3.27;2.33;;;5.80;99.90;;;;;;4097322;28;20039;-65
2024/02/14 09:30:18;;;;;;;6.43;2.80;;;5.80;99.90;;;;;;4098861;29;20039;-62
2024/02/14 09:32:20;;;;;;;4.73;2.80;;;5.90;99.90;;;;;;4098155;29;20027;-65
2024/02/14 09:34:21;;;;;;;4.20;2.77;;;6.00;99.90;;;;;;4099160;29;20464;-62
2024/02/14 09:36:24;;;;;;;7.00;2.70;;;6.00;99.90;;;;;;4097856;28;20051;-62
2024/02/14 09:38:25;;;;;;;4.07;2.40;;;6.00;99.90;;;;;;4082247;29;20453;-60
2024/02/14 09:40:26;;;;;;;3.67;2.47;;;6.00;99.90;;;;;;4098107;28;20039;-61
2024/02/14 09:43:03;;;;;;;3.80;2.13;;;6.00;99.90;;;;;;4098876;29;20027;-59
2024/02/14 09:45:06;;;;;;;5.23;2.60;;;6.10;99.90;;;;;;4106113;28;20055;-61
2024/02/14 09:47:09;;;;;;;7.50;2.87;;;6.10;99.90;;;;;;4098904;28;20503;-60
2024/02/14 09:49:11;;;;;;;5.93;2.53;;;6.20;99.90;;;;;;4097464;28;20420;-62
2024/02/14 09:51:13;;;;;;;5.60;2.80;;;6.20;99.90;;;;;;4097640;29;20090;-59
2024/02/14 09:53:16;;;;;;;5.47;3.00;;;6.30;99.90;;;;;;4097556;28;20039;-60
2024/02/14 09:55:17;;;;;;;5.40;3.07;;;6.30;99.90;;;;;;4098196;29;20039;-62
2024/02/14 09:57:19;;;;;;;6.23;2.43;;;6.40;99.90;;;;;;4097337;29;20039;-67
2024/02/14 09:59:22;;;;;;;5.80;2.93;;;6.50;99.90;;;;;;4098134;29;20103;-64
2024/02/14 10:01:24;;;;;;;4.47;2.77;;;6.60;99.90;;;;;;4097811;29;20031;-62
2024/02/14 10:03:26;;;;;;;6.30;3.00;;;6.70;99.90;;;;;;4098120;29;20039;-61
2024/02/14 10:05:27;;;;;;;8.77;4.17;;;6.70;99.90;;;;;;4097856;29;20491;-60
2024/02/14 10:07:28;;;;;;;10.23;3.50;;;6.70;99.90;;;;;;4097368;29;20448;-59
2024/02/14 10:09:30;;;;;;;13.43;6.60;;;6.60;99.90;;;;;;4098256;28;20834;-63
2024/02/14 10:11:32;;;;;;;8.10;3.90;;;6.70;99.90;;;;;;4097227;29;20044;-60
2024/02/14 10:13:34;;;;;;;10.53;3.70;;;6.70;99.90;;;;;;4098509;29;20105;-65
2024/02/14 10:15:35;;;;;;;5.47;2.47;;;6.80;99.90;;;;;;4097202;29;20102;-61
2024/02/14 10:17:40;;;;;;;12.10;2.90;;;6.80;99.90;;;;;;4098399;29;20098;-64
2024/02/14 10:19:41;;;;;;;7.60;3.37;;;6.80;99.90;;;;;;4097163;29;20031;-62
2024/02/14 10:21:43;;;;;;;4.43;3.10;;;6.90;99.90;;;;;;4097984;29;20035;-62
2024/02/14 10:23:46;;;;;;;3.73;2.70;;;6.90;99.90;;;;;;4095802;29;20035;-61
2024/02/14 10:25:57;;;;;;;4.53;2.10;;;7.00;99.90;;;;;;4098336;29;20429;-60
2024/02/14 10:28:08;;;;;;;5.67;2.27;;;7.00;99.90;;;;;;4097020;29;20036;-62
2024/02/14 10:30:10;;;;;;;8.73;2.85;;;7.00;99.90;;;;;;4098717;28;20051;-62
2024/02/14 10:32:15;;;;;;;6.27;2.37;;;6.90;99.90;;;;;;4097283;29;20082;-60
2024/02/14 10:34:18;;;;;;;5.00;2.33;;;7.00;99.90;;;;;;4098237;29;20035;-62
2024/02/14 10:36:20;;;;;;;5.43;2.23;;;6.90;99.90;;;;;;4096980;29;20031;-64
2024/02/14 10:38:24;;;;;;;3.40;1.93;;;6.90;99.90;;;;;;4097741;29;20078;-63
2024/02/14 10:40:27;;;;;;;3.50;2.07;;;6.90;99.90;;;;;;4095367;28;20511;-62
2024/02/14 10:42:28;;;;;;;6.93;2.07;;;6.90;99.90;;;;;;4097456;29;20093;-63